Terminal Aerodrome Forecast
Issued by NWS

Home | Current Version | Previous Version | Graphics & Text | Print | Product List | Glossary On
Versions: 1 2 3 4 5 6 7 8 9 10 11 12 13 14 15 16 17 18 19
000
FTUS43 KBIS 301129
TAFJMS
TAF
KJMS 301129Z 3012/3112 17008KT 2SM BR BKN002
      TEMPO 3012/3014 3/4SM BR OVC002
     FM301500 17012G18KT P6SM SCT250
     FM301900 18020G28KT P6SM SCT250
     FM310200 17015KT P6SM SCT250
     FM310900 19012KT P6SM SCT080 BKN250=

USA.gov is the U.S. government's official web portal to all federal, state and local government web resources and services.